createdAt,value
2023-04-10T00:01:39.404Z,6.90
2023-04-10T00:04:25.303Z,7.00
2023-04-10T00:10:38.630Z,6.90
2023-04-10T00:13:19.947Z,6.70
2023-04-10T00:16:19.851Z,6.60
2023-04-10T00:19:15.877Z,6.50
2023-04-10T00:22:08.027Z,6.50
2023-04-10T00:24:59.977Z,6.50
2023-04-10T00:31:02.199Z,6.40
2023-04-10T00:34:01.227Z,6.20
2023-04-10T00:36:59.142Z,6.20
2023-04-10T00:39:53.486Z,6.20
2023-04-10T00:48:40.974Z,6.00
2023-04-10T00:51:36.029Z,6.00
2023-04-10T00:57:27.511Z,5.90
2023-04-10T01:00:19.513Z,5.90
2023-04-10T01:03:13.184Z,5.70
2023-04-10T01:06:14.301Z,5.60
2023-04-10T01:09:22.086Z,5.50
2023-04-10T01:12:17.349Z,5.40
2023-04-10T01:15:12.507Z,5.40
2023-04-10T01:18:25.149Z,5.40
2023-04-10T01:21:20.463Z,5.40
2023-04-10T01:24:34.900Z,5.40
2023-04-10T01:27:41.293Z,5.40
2023-04-10T01:31:03.917Z,5.40
2023-04-10T01:33:57.967Z,5.40
2023-04-10T01:39:45.887Z,5.10
2023-04-10T01:43:05.581Z,5.10
2023-04-10T01:45:57.490Z,5.10
2023-04-10T01:48:46.904Z,5.10
2023-04-10T01:51:38.949Z,5.10
2023-04-10T01:54:31.625Z,5.00
2023-04-10T01:57:20.227Z,5.00
2023-04-10T02:00:23.754Z,5.00
2023-04-10T02:03:44.630Z,4.90
2023-04-10T02:06:51.665Z,4.90
2023-04-10T02:09:51.608Z,4.90
2023-04-10T02:12:38.134Z,4.80
2023-04-10T02:15:17.973Z,4.80
2023-04-10T02:18:02.252Z,4.70
2023-04-10T02:20:39.509Z,4.80
2023-04-10T02:23:37.137Z,4.80
2023-04-10T02:26:44.432Z,4.70
2023-04-10T02:29:40.576Z,4.70
2023-04-10T02:32:34.626Z,4.60
2023-04-10T02:35:39.379Z,4.60
2023-04-10T02:38:31.228Z,4.50
2023-04-10T02:41:09.625Z,4.40
2023-04-10T02:44:01.560Z,4.50
2023-04-10T02:47:01.703Z,4.60
2023-04-10T02:53:12.452Z,4.50
2023-04-10T02:58:58.556Z,4.50
2023-04-10T03:01:51.807Z,4.50
2023-04-10T03:05:02.575Z,4.50
2023-04-10T03:07:48.194Z,4.50
2023-04-10T03:10:46.672Z,4.40
2023-04-10T03:14:11.234Z,4.40
2023-04-10T03:16:48.760Z,4.40
2023-04-10T03:20:00.325Z,4.40
2023-04-10T03:25:36.830Z,4.40
2023-04-10T03:28:25.724Z,4.60
2023-04-10T03:34:38.499Z,4.50
2023-04-10T03:37:33.369Z,4.40
2023-04-10T03:40:27.425Z,4.60
2023-04-10T03:43:32.710Z,4.60
2023-04-10T03:46:30.820Z,4.60
2023-04-10T03:52:41.336Z,4.70
2023-04-10T03:58:59.413Z,4.80
2023-04-10T04:02:15.151Z,4.80
2023-04-10T04:04:54.032Z,4.70
2023-04-10T04:07:47.610Z,4.70
2023-04-10T04:10:41.630Z,4.70
2023-04-10T04:13:59.884Z,4.80
2023-04-10T04:17:35.565Z,4.80
2023-04-10T04:20:40.988Z,4.90
2023-04-10T04:23:40.404Z,5.10
2023-04-10T04:37:47.570Z,4.70
2023-04-10T04:44:03.448Z,5.00
2023-04-10T05:01:26.725Z,4.80
2023-04-10T05:04:37.548Z,4.80
2023-04-10T05:07:48.169Z,4.90
2023-04-10T05:11:05.851Z,4.90
2023-04-10T05:14:59.378Z,5.00
2023-04-10T05:22:20.804Z,5.00
2023-04-10T05:26:07.629Z,5.00
2023-04-10T05:33:14.669Z,5.10
2023-04-10T05:44:31.520Z,5.30
2023-04-10T05:47:33.897Z,5.40
2023-04-10T06:06:52.897Z,6.10
2023-04-10T06:18:36.537Z,6.60
2023-04-10T06:50:04.159Z,8.10
2023-04-10T06:53:01.416Z,8.30
2023-04-10T06:55:32.698Z,8.40
2023-04-10T06:58:00.963Z,8.60
2023-04-10T07:00:29.508Z,8.80
2023-04-10T07:06:13.714Z,9.00
2023-04-10T07:08:43.332Z,9.30
2023-04-10T07:11:12.803Z,9.30
2023-04-10T07:13:46.882Z,9.40
2023-04-10T07:16:17.299Z,9.60
2023-04-10T07:18:47.503Z,9.70
2023-04-10T07:21:22.679Z,9.90
2023-04-10T07:23:51.645Z,10.00
2023-04-10T07:26:19.994Z,10.20
2023-04-10T07:28:48.398Z,10.30
2023-04-10T07:31:19.848Z,10.40
2023-04-10T07:33:48.384Z,10.60
2023-04-10T07:36:18.356Z,10.80
2023-04-10T07:38:46.509Z,11.00
2023-04-10T07:41:14.636Z,11.10
2023-04-10T07:43:42.752Z,11.20
2023-04-10T07:46:11.635Z,11.20
2023-04-10T07:48:40.382Z,11.30
2023-04-10T07:51:09.877Z,11.40
2023-04-10T07:53:40.185Z,11.50
2023-04-10T07:56:15.940Z,11.60
2023-04-10T07:58:44.959Z,11.70
2023-04-10T08:01:13.234Z,11.80
2023-04-10T08:03:42.760Z,11.90
2023-04-10T08:06:12.802Z,11.90
2023-04-10T08:08:44.256Z,12.10
2023-04-10T08:11:26.557Z,12.10
2023-04-10T08:13:55.366Z,12.20
2023-04-10T08:16:26.466Z,12.20
2023-04-10T08:18:56.746Z,12.30
2023-04-10T08:21:27.272Z,12.40
2023-04-10T08:23:59.005Z,12.40
2023-04-10T08:26:28.800Z,12.50
2023-04-10T08:28:58.925Z,12.70
2023-04-10T08:31:29.492Z,12.70
2023-04-10T08:33:58.837Z,12.90
2023-04-10T08:36:28.209Z,12.90
2023-04-10T08:38:57.770Z,12.90
2023-04-10T08:41:26.863Z,12.90
2023-04-10T08:43:55.472Z,13.00
2023-04-10T08:46:26.572Z,13.10
2023-04-10T08:49:02.486Z,13.10
2023-04-10T08:51:40.400Z,13.20
2023-04-10T08:54:19.439Z,13.40
2023-04-10T08:56:52.809Z,13.40
2023-04-10T09:04:01.579Z,13.50
2023-04-10T09:21:10.734Z,14.10
2023-04-10T09:23:39.261Z,14.30
2023-04-10T09:26:29.049Z,14.40
2023-04-10T09:29:03.204Z,14.60
2023-04-10T09:31:33.784Z,14.60
2023-04-10T09:34:17.482Z,14.80
2023-04-10T09:36:56.394Z,14.90
2023-04-10T09:39:35.509Z,15.00
2023-04-10T09:42:03.842Z,15.20
2023-04-10T09:44:34.890Z,15.30
2023-04-10T09:47:19.342Z,15.30
2023-04-10T09:49:49.471Z,15.50
2023-04-10T09:52:25.573Z,15.60
2023-04-10T09:54:55.349Z,15.80
2023-04-10T09:57:25.742Z,16.00
2023-04-10T09:59:57.466Z,16.10
2023-04-10T10:02:31.236Z,16.40
2023-04-10T10:05:01.819Z,16.40
2023-04-10T10:07:32.244Z,16.50
2023-04-10T10:10:03.672Z,16.70
2023-04-10T10:12:45.886Z,16.70
2023-04-10T10:15:25.577Z,16.80
2023-04-10T10:18:08.736Z,17.00
2023-04-10T10:20:39.989Z,17.10
2023-04-10T10:23:09.952Z,17.20
2023-04-10T10:25:39.737Z,17.10
2023-04-10T10:28:08.970Z,17.00
2023-04-10T10:30:38.911Z,16.90
2023-04-10T10:33:08.829Z,16.80
2023-04-10T10:35:38.424Z,16.70
2023-04-10T10:38:09.713Z,16.80
2023-04-10T10:40:51.578Z,16.90
2023-04-10T10:43:29.629Z,17.00
2023-04-10T10:46:04.791Z,17.30
2023-04-10T10:48:32.833Z,17.30
2023-04-10T10:51:03.553Z,17.40
2023-04-10T10:53:40.915Z,17.50
2023-04-10T10:56:37.494Z,17.50
2023-04-10T10:59:05.910Z,17.70
2023-04-10T11:01:34.017Z,18.10
2023-04-10T11:04:02.301Z,18.40
2023-04-10T11:06:53.552Z,18.80
2023-04-10T11:09:51.682Z,19.40
2023-04-10T11:12:23.407Z,20.00
2023-04-10T11:15:00.728Z,20.50
2023-04-10T11:17:49.000Z,21.10
2023-04-10T11:20:17.467Z,21.90
2023-04-10T11:23:14.062Z,22.40
2023-04-10T11:25:51.870Z,22.80
2023-04-10T11:28:39.199Z,23.10
2023-04-10T11:31:23.491Z,23.50
2023-04-10T11:34:04.577Z,23.80
2023-04-10T11:36:34.849Z,23.80
2023-04-10T11:39:06.053Z,24.10
2023-04-10T11:41:38.942Z,24.20
2023-04-10T11:44:10.227Z,24.50
2023-04-10T11:46:40.530Z,24.80
2023-04-10T11:49:11.077Z,25.20
2023-04-10T11:51:40.554Z,25.60
2023-04-10T11:54:11.052Z,25.50
2023-04-10T11:56:43.033Z,25.30
2023-04-10T11:59:14.378Z,25.20
2023-04-10T12:01:43.443Z,25.40
2023-04-10T12:04:18.360Z,25.10
2023-04-10T12:06:48.345Z,25.40
2023-04-10T12:09:19.007Z,25.70
2023-04-10T12:11:54.159Z,26.00
2023-04-10T12:14:23.976Z,26.00
2023-04-10T12:16:53.236Z,26.00
2023-04-10T12:19:23.550Z,25.60
2023-04-10T12:21:51.774Z,25.50
2023-04-10T12:24:46.298Z,25.20
2023-04-10T12:27:19.559Z,25.00
2023-04-10T12:29:48.925Z,24.40
2023-04-10T12:32:18.124Z,24.20
2023-04-10T12:34:52.332Z,24.20
2023-04-10T12:37:21.246Z,24.70
2023-04-10T12:39:49.901Z,24.80
2023-04-10T12:42:22.566Z,24.80
2023-04-10T12:44:52.836Z,25.30
2023-04-10T12:47:20.908Z,25.60
2023-04-10T12:50:07.763Z,25.50
2023-04-10T12:52:37.495Z,25.40
2023-04-10T12:55:15.752Z,25.00
2023-04-10T12:57:48.146Z,24.70
2023-04-10T13:00:19.417Z,24.80
2023-04-10T13:02:50.145Z,24.70
2023-04-10T13:05:18.721Z,25.20
2023-04-10T13:07:46.807Z,25.60
2023-04-10T13:10:14.844Z,25.90
2023-04-10T13:12:44.708Z,25.90
2023-04-10T13:15:13.210Z,26.10
2023-04-10T13:17:41.830Z,26.10
2023-04-10T13:20:11.380Z,25.90
2023-04-10T13:22:39.393Z,25.50
2023-04-10T13:25:08.482Z,25.30
2023-04-10T13:27:39.943Z,25.00
2023-04-10T13:30:11.018Z,24.90
2023-04-10T13:32:39.070Z,25.00
2023-04-10T13:35:08.602Z,25.20
2023-04-10T13:37:36.918Z,25.40
2023-04-10T13:40:05.513Z,25.20
2023-04-10T13:42:34.422Z,25.30
2023-04-10T13:45:04.099Z,25.40
2023-04-10T13:47:34.531Z,25.80
2023-04-10T13:50:02.981Z,26.00
2023-04-10T13:52:31.032Z,26.30
2023-04-10T13:54:59.296Z,26.50
2023-04-10T13:57:27.296Z,26.60
2023-04-10T13:59:55.720Z,26.50
2023-04-10T14:02:23.846Z,26.30
2023-04-10T14:04:54.769Z,26.30
2023-04-10T14:07:22.817Z,26.40
2023-04-10T14:09:50.946Z,26.40
2023-04-10T14:12:19.520Z,26.40
2023-04-10T14:14:47.535Z,26.80
2023-04-10T14:17:16.116Z,27.30
2023-04-10T14:19:46.268Z,27.90
2023-04-10T14:22:16.455Z,28.20
2023-04-10T14:24:44.492Z,27.90
2023-04-10T14:27:13.541Z,27.90
2023-04-10T14:29:50.500Z,27.80
2023-04-10T14:32:22.272Z,27.80
2023-04-10T14:34:50.332Z,27.60
2023-04-10T14:37:19.709Z,27.20
2023-04-10T14:39:47.889Z,27.10
2023-04-10T14:42:16.016Z,27.10
2023-04-10T14:44:44.386Z,26.90
2023-04-10T14:47:12.435Z,27.10
2023-04-10T14:49:41.780Z,27.40
2023-04-10T14:52:10.013Z,27.60
2023-04-10T14:54:41.341Z,27.10
2023-04-10T14:57:10.114Z,26.90
2023-04-10T14:59:38.477Z,26.50
2023-04-10T15:02:06.811Z,26.20
2023-04-10T15:04:35.493Z,25.60
2023-04-10T15:07:03.992Z,25.20
2023-04-10T15:09:33.662Z,24.70
2023-04-10T15:12:02.995Z,24.30
2023-04-10T15:14:33.071Z,23.90
2023-04-10T15:17:01.161Z,23.70
2023-04-10T15:19:29.291Z,23.50
2023-04-10T15:21:57.378Z,23.30
2023-04-10T15:24:25.543Z,23.00
2023-04-10T15:26:53.924Z,22.70
2023-04-10T15:29:23.290Z,22.40
2023-04-10T15:31:51.877Z,22.20
2023-04-10T15:34:19.963Z,22.10
2023-04-10T15:36:48.402Z,21.90
2023-04-10T15:39:16.440Z,21.90
2023-04-10T15:41:45.041Z,21.70
2023-04-10T15:44:13.053Z,21.70
2023-04-10T15:46:43.338Z,21.60
2023-04-10T15:49:11.503Z,21.30
2023-04-10T15:51:39.533Z,21.10
2023-04-10T15:54:08.956Z,20.90
2023-04-10T15:56:36.952Z,20.70
2023-04-10T15:59:06.670Z,20.40
2023-04-10T16:01:34.911Z,20.20
2023-04-10T16:04:04.827Z,20.10
2023-04-10T16:06:34.051Z,20.10
2023-04-10T16:09:04.712Z,19.90
2023-04-10T16:11:36.141Z,19.70
2023-04-10T16:14:04.155Z,19.60
2023-04-10T16:16:32.374Z,19.70
2023-04-10T16:19:01.651Z,19.60
2023-04-10T16:21:31.402Z,19.70
2023-04-10T16:24:00.865Z,19.80
2023-04-10T16:26:29.181Z,20.00
2023-04-10T16:28:57.342Z,19.90
2023-04-10T16:31:26.106Z,19.80
2023-04-10T16:43:12.637Z,19.60
2023-04-10T16:45:40.893Z,19.50
2023-04-10T16:48:08.997Z,19.40
2023-04-10T16:50:37.324Z,19.20
2023-04-10T16:53:05.509Z,19.10
2023-04-10T16:55:34.372Z,19.00
2023-04-10T16:58:02.419Z,19.00
2023-04-10T17:00:31.870Z,18.90
2023-04-10T17:03:01.213Z,18.90
2023-04-10T17:05:36.469Z,18.80
2023-04-10T17:08:05.276Z,18.80
2023-04-10T17:10:33.531Z,18.60
2023-04-10T17:13:01.582Z,18.50
2023-04-10T17:15:30.950Z,18.40
2023-04-10T17:17:59.470Z,18.30
2023-04-10T17:20:28.249Z,18.10
2023-04-10T17:22:56.306Z,18.00
2023-04-10T17:25:24.306Z,18.00
2023-04-10T17:27:52.295Z,17.90
2023-04-10T17:30:21.419Z,17.90
2023-04-10T17:32:51.217Z,17.80
2023-04-10T17:35:19.280Z,17.70
2023-04-10T17:37:47.321Z,17.60
2023-04-10T17:40:16.015Z,17.50
2023-04-10T17:42:44.141Z,17.40
2023-04-10T17:45:13.376Z,17.30
2023-04-10T17:47:42.691Z,17.20
2023-04-10T17:50:12.483Z,17.10
2023-04-10T17:52:41.094Z,16.90
2023-04-10T17:55:10.694Z,16.80
2023-04-10T17:57:38.667Z,16.70
2023-04-10T18:00:10.002Z,16.60
2023-04-10T18:02:38.281Z,16.50
2023-04-10T18:05:08.487Z,16.40
2023-04-10T18:07:38.290Z,16.20
2023-04-10T18:10:10.583Z,16.00
2023-04-10T18:12:39.223Z,15.90
2023-04-10T18:15:09.311Z,15.70
2023-04-10T18:17:39.401Z,15.70
2023-04-10T18:20:08.364Z,15.60
2023-04-10T18:22:37.976Z,15.60
2023-04-10T18:25:07.350Z,15.60
2023-04-10T18:27:36.117Z,15.50
2023-04-10T18:30:04.641Z,15.50
2023-04-10T18:32:33.091Z,15.40
2023-04-10T18:35:03.500Z,15.40
2023-04-10T18:37:31.794Z,15.30
2023-04-10T18:40:09.817Z,15.30
2023-04-10T18:42:38.090Z,15.30
2023-04-10T18:45:08.354Z,15.20
2023-04-10T18:47:36.517Z,15.20
2023-04-10T18:50:05.301Z,15.20
2023-04-10T18:52:33.348Z,15.10
2023-04-10T18:55:02.758Z,15.10
2023-04-10T18:57:31.229Z,15.00
2023-04-10T18:59:59.701Z,15.00
2023-04-10T19:02:29.036Z,15.00
2023-04-10T19:04:57.675Z,15.00
2023-04-10T19:07:26.343Z,15.00
2023-04-10T19:09:55.192Z,15.00
2023-04-10T19:12:24.668Z,15.00
2023-04-10T19:14:52.924Z,15.00
2023-04-10T19:17:21.814Z,15.00
2023-04-10T19:19:49.896Z,15.10
2023-04-10T19:22:17.971Z,15.10
2023-04-10T19:24:46.556Z,15.20
2023-04-10T19:27:14.619Z,15.20
2023-04-10T19:29:43.971Z,15.20
2023-04-10T19:32:11.985Z,15.20
2023-04-10T19:34:39.997Z,15.20
2023-04-10T19:37:07.989Z,15.20
2023-04-10T19:39:36.270Z,15.20
2023-04-10T19:42:04.517Z,15.20
2023-04-10T19:44:32.573Z,15.20
2023-04-10T19:47:02.019Z,15.20
2023-04-10T19:49:33.073Z,15.20
2023-04-10T19:52:02.160Z,15.20
2023-04-10T19:54:30.880Z,15.20
2023-04-10T19:56:58.967Z,15.20
2023-04-10T19:59:26.961Z,15.20
2023-04-10T20:01:55.828Z,15.20
2023-04-10T20:04:25.676Z,15.20
2023-04-10T20:06:53.792Z,15.20
2023-04-10T20:09:21.919Z,15.10
2023-04-10T20:11:49.950Z,15.10
2023-04-10T20:14:17.885Z,15.10
2023-04-10T20:16:46.459Z,15.10
2023-04-10T20:19:14.502Z,15.10
2023-04-10T20:21:43.978Z,15.10
2023-04-10T20:24:12.000Z,15.10
2023-04-10T20:26:40.046Z,15.10
2023-04-10T20:29:08.206Z,15.10
2023-04-10T20:31:36.207Z,15.00
2023-04-10T20:34:04.751Z,15.00
2023-04-10T20:36:33.733Z,15.00
2023-04-10T20:39:03.431Z,15.00
2023-04-10T20:41:31.643Z,14.90
2023-04-10T20:43:59.671Z,14.80
2023-04-10T20:46:27.793Z,14.80
2023-04-10T20:48:56.959Z,14.80
2023-04-10T20:51:25.354Z,14.70
2023-04-10T20:53:53.344Z,14.70
2023-04-10T20:56:32.787Z,14.70
2023-04-10T20:59:08.577Z,14.70
2023-04-10T21:01:37.371Z,14.60
2023-04-10T21:04:06.258Z,14.60
2023-04-10T21:06:34.521Z,14.50
2023-04-10T21:09:02.910Z,14.40
2023-04-10T21:11:32.470Z,14.40
2023-04-10T21:14:00.755Z,14.30
2023-04-10T21:16:30.910Z,14.20
2023-04-10T21:18:58.989Z,14.10
2023-04-10T21:21:27.732Z,14.00
2023-04-10T21:23:56.168Z,14.00
2023-04-10T22:47:03.190Z,14.40
2023-04-10T22:49:31.777Z,14.50
2023-04-10T22:51:59.741Z,14.50
2023-04-10T22:54:29.636Z,14.50
2023-04-10T22:56:58.501Z,14.50
2023-04-10T22:59:26.600Z,14.50
2023-04-10T23:01:55.598Z,14.50
2023-04-10T23:04:25.120Z,14.50
2023-04-10T23:06:53.227Z,14.50
2023-04-10T23:09:21.271Z,14.50
2023-04-10T23:11:49.278Z,14.50
2023-04-10T23:14:17.273Z,14.50
2023-04-10T23:16:47.116Z,14.50
2023-04-10T23:19:15.939Z,14.50
2023-04-10T23:21:45.250Z,14.50
2023-04-10T23:24:13.381Z,14.50
2023-04-10T23:26:41.631Z,14.50
2023-04-10T23:29:09.634Z,14.50
2023-04-10T23:31:38.094Z,14.50
2023-04-10T23:34:06.004Z,14.30
2023-04-10T23:36:34.245Z,14.10
2023-04-10T23:39:03.967Z,14.00
2023-04-10T23:41:32.391Z,13.70
2023-04-10T23:44:00.860Z,13.60
2023-04-10T23:46:29.203Z,13.40
2023-04-10T23:48:57.257Z,13.30
2023-04-10T23:51:27.089Z,13.20
2023-04-10T23:53:55.251Z,13.10
2023-04-10T23:56:28.946Z,13.10
2023-04-10T23:58:57.173Z,13.00
